createdAt,value
2023-03-17T09:45:01.420Z,6.2
2023-03-17T09:50:01.333Z,6.1
2023-03-17T10:00:01.480Z,5.7
2023-03-17T10:05:01.544Z,8.8
2023-03-17T10:10:01.636Z,12.2
2023-03-17T10:15:01.456Z,16.5
2023-03-17T10:30:01.824Z,45.8
2023-03-17T10:35:01.807Z,37.8
2023-03-17T10:40:01.804Z,46.7
2023-03-17T10:45:01.793Z,38.9
2023-03-17T11:00:01.588Z,28.6
2023-03-17T11:05:01.302Z,18.8
2023-03-17T11:10:06.163Z,21.4
2023-03-17T11:30:02.250Z,36.2
2023-03-17T11:35:01.618Z,35.7
2023-03-17T11:50:02.478Z,53.0
2023-03-17T11:55:01.973Z,54.8
2023-03-17T12:00:02.071Z,56.7
2023-03-17T12:05:02.459Z,60.7
2023-03-17T12:10:01.850Z,64.7
2023-03-17T12:15:01.951Z,68.4
2023-03-17T12:20:01.893Z,69.6
2023-03-17T12:25:02.196Z,72.3
2023-03-17T12:30:01.801Z,72.6
2023-03-17T12:35:02.133Z,70.0
2023-03-17T12:50:01.545Z,87.2
2023-03-17T12:55:01.885Z,88.6
2023-03-17T13:00:02.420Z,88.2
2023-03-17T13:05:01.566Z,88.4
2023-03-17T13:30:01.043Z,92.6
2023-03-17T13:50:02.587Z,85.0
2023-03-17T13:55:02.467Z,84.0
2023-03-17T14:10:01.796Z,83.8
2023-03-17T14:15:01.762Z,77.7
2023-03-17T14:20:01.822Z,78.6
2023-03-17T14:25:01.877Z,78.0
2023-03-17T14:30:01.662Z,77.9
2023-03-17T14:35:01.684Z,76.4
2023-03-17T14:40:02.706Z,77.1
2023-03-17T14:50:01.804Z,77.2
2023-03-17T14:55:01.700Z,79.4
2023-03-17T15:20:06.567Z,90.4
2023-03-17T15:25:01.557Z,85.0
2023-03-17T15:40:01.945Z,75.6
2023-03-17T15:45:02.139Z,73.6
2023-03-17T15:50:01.792Z,74.0
2023-03-17T16:05:01.885Z,73.5
2023-03-17T16:10:01.731Z,74.7
2023-03-17T16:15:20.250Z,75.4
2023-03-17T16:20:01.719Z,77.2
2023-03-17T16:40:01.754Z,71.0
2023-03-17T16:45:01.437Z,70.8
2023-03-17T16:50:01.381Z,70.7
2023-03-17T17:00:01.647Z,71.1
2023-03-17T17:10:06.583Z,71.5
2023-03-17T17:15:01.417Z,70.7
2023-03-17T17:20:01.589Z,71.3
2023-03-17T17:25:01.507Z,71.4
2023-03-17T17:30:01.355Z,72.4
2023-03-17T17:35:01.892Z,71.8
2023-03-17T17:40:01.400Z,71.9
2023-03-17T17:45:01.412Z,68.5
2023-03-17T17:55:01.632Z,66.8
2023-03-17T18:05:02.482Z,65.6
2023-03-17T18:10:06.400Z,65.8
2023-03-17T18:15:01.474Z,66.6
2023-03-17T18:20:01.343Z,70.2
2023-03-17T18:25:01.540Z,71.2
2023-03-17T18:30:01.324Z,74.0
2023-03-17T18:35:01.450Z,75.8
2023-03-17T18:40:17.136Z,78.9
2023-03-17T18:45:01.388Z,81.2
2023-03-17T18:55:06.396Z,84.7
2023-03-17T19:00:01.606Z,91.7
2023-03-17T19:05:01.398Z,101.1
2023-03-17T19:10:01.355Z,109.0
2023-03-17T19:15:01.386Z,116.7
2023-03-17T19:20:01.485Z,122.2
2023-03-17T19:25:01.578Z,119.3
2023-03-17T19:35:01.459Z,116.6
2023-03-17T19:40:01.342Z,106.3
2023-03-17T19:45:01.388Z,105.1
2023-03-17T19:50:01.320Z,105.6
2023-03-17T19:55:01.387Z,108.4
2023-03-17T20:00:01.446Z,108.6
2023-03-17T20:05:01.477Z,115.9
2023-03-17T20:10:01.352Z,112.8
2023-03-17T20:15:01.394Z,110.3
2023-03-17T20:20:01.385Z,107.7
2023-03-17T20:30:01.450Z,108.1
2023-03-17T20:35:01.470Z,109.2
2023-03-17T20:40:01.357Z,110.8
2023-03-17T20:45:01.445Z,113.0
2023-03-17T20:50:01.357Z,114.2
2023-03-17T20:55:01.412Z,114.7
2023-03-17T21:00:01.425Z,114.5
2023-03-17T21:05:02.408Z,114.7
2023-03-17T21:10:01.381Z,111.7
2023-03-17T21:15:02.656Z,109.5
2023-03-17T21:20:01.366Z,108.0
2023-03-17T21:25:01.380Z,106.5
2023-03-17T21:30:01.318Z,107.7
2023-03-17T21:35:01.408Z,108.7
2023-03-17T21:40:01.343Z,111.2
2023-03-17T21:45:01.454Z,112.5
2023-03-17T21:50:01.425Z,115.1
2023-03-17T21:55:06.451Z,112.8
2023-03-17T22:00:01.357Z,112.0
2023-03-17T22:05:01.422Z,111.2
2023-03-17T22:10:06.349Z,110.2
2023-03-17T22:15:01.494Z,108.5
2023-03-17T22:20:06.731Z,107.7
2023-03-17T22:30:01.393Z,107.8
2023-03-17T22:35:01.344Z,104.8
2023-03-17T22:40:01.328Z,101.8
2023-03-17T22:45:01.386Z,96.5
2023-03-17T22:50:01.328Z,93.0
2023-03-17T23:00:02.456Z,89.2
2023-03-17T23:05:01.463Z,70.7
2023-03-17T23:10:01.325Z,71.2
2023-03-17T23:15:01.503Z,73.8
2023-03-17T23:20:02.390Z,75.1
2023-03-17T23:25:01.396Z,77.7
2023-03-17T23:30:01.352Z,95.4
2023-03-17T23:35:01.502Z,93.8
2023-03-17T23:45:01.409Z,93.6
2023-03-17T23:50:01.331Z,91.7
2023-03-17T23:55:01.404Z,89.5
